createdAt,value
2022-10-23T00:00:08.437Z,1008.06
2022-10-23T00:01:08.389Z,1008.07
2022-10-23T00:02:08.432Z,1008.08
2022-10-23T00:03:08.366Z,1008.09
2022-10-23T00:04:08.376Z,1008.09
2022-10-23T00:05:08.382Z,1008.09
2022-10-23T00:06:08.356Z,1008.08
2022-10-23T00:07:08.325Z,1008.05
2022-10-23T00:08:08.334Z,1008.03
2022-10-23T00:09:08.304Z,1008.00
2022-10-23T00:10:08.307Z,1007.98
2022-10-23T00:11:08.307Z,1007.97
2022-10-23T00:12:08.287Z,1007.95
2022-10-23T00:13:08.260Z,1007.93
2022-10-23T00:14:08.265Z,1007.94
2022-10-23T00:15:08.241Z,1007.97
2022-10-23T00:16:08.245Z,1008.01
2022-10-23T00:17:08.242Z,1008.05
2022-10-23T00:18:08.224Z,1008.08
2022-10-23T00:19:08.200Z,1008.09
2022-10-23T00:20:08.198Z,1008.08
2022-10-23T00:21:08.193Z,1008.09
2022-10-23T00:22:08.183Z,1008.09
2022-10-23T00:23:08.192Z,1008.10
2022-10-23T00:25:08.142Z,1008.11
2022-10-23T00:26:08.136Z,1008.11
2022-10-23T00:27:08.114Z,1008.10
2022-10-23T00:28:08.121Z,1008.09
2022-10-23T00:29:08.117Z,1008.09
2022-10-23T00:30:08.101Z,1008.10
2022-10-23T00:31:08.070Z,1008.09
2022-10-23T00:32:08.080Z,1008.09
2022-10-23T00:33:08.058Z,1008.06
2022-10-23T00:34:08.170Z,1008.04
2022-10-23T00:35:08.064Z,1008.02
2022-10-23T00:36:08.034Z,1008.01
2022-10-23T00:37:08.007Z,1008.01
2022-10-23T00:38:08.016Z,1008.01
2022-10-23T00:39:07.992Z,1008.02
2022-10-23T00:40:07.990Z,1008.01
2022-10-23T00:41:07.992Z,1008.01
2022-10-23T00:42:07.970Z,1008.00
2022-10-23T00:43:07.946Z,1008.02
2022-10-23T00:44:07.961Z,1008.04
2022-10-23T00:45:07.928Z,1008.08
2022-10-23T00:46:07.926Z,1008.11
2022-10-23T00:47:07.937Z,1008.13
2022-10-23T00:48:07.905Z,1008.12
2022-10-23T00:49:07.943Z,1008.10
2022-10-23T00:50:07.885Z,1008.09
2022-10-23T00:51:07.861Z,1008.08
2022-10-23T00:52:07.869Z,1008.10
2022-10-23T00:53:07.875Z,1008.13
2022-10-23T00:54:24.797Z,1008.16
2022-10-23T00:55:07.829Z,1008.17
2022-10-23T00:56:07.822Z,1008.16
2022-10-23T00:57:07.796Z,1008.14
2022-10-23T00:58:07.806Z,1008.12
2022-10-23T00:59:07.806Z,1008.10
2022-10-23T01:00:07.782Z,1008.09
2022-10-23T01:01:07.846Z,1008.07
2022-10-23T01:02:07.878Z,1008.06
2022-10-23T01:03:07.739Z,1008.05
2022-10-23T01:04:07.736Z,1008.06
2022-10-23T01:05:07.756Z,1008.07
2022-10-23T01:06:07.717Z,1008.08
2022-10-23T01:07:07.692Z,1008.08
2022-10-23T01:08:07.701Z,1008.08
2022-10-23T01:09:07.677Z,1008.07
2022-10-23T01:10:07.673Z,1008.06
2022-10-23T01:11:07.682Z,1008.07
2022-10-23T01:12:07.670Z,1008.07
2022-10-23T01:13:07.658Z,1008.07
2022-10-23T01:14:07.638Z,1008.06
2022-10-23T01:15:07.615Z,1008.06
2022-10-23T01:16:07.621Z,1008.06
2022-10-23T01:17:07.637Z,1008.07
2022-10-23T01:18:07.596Z,1008.08
2022-10-23T01:19:07.585Z,1008.08
2022-10-23T01:20:07.575Z,1008.09
2022-10-23T01:21:07.557Z,1008.07
2022-10-23T01:22:07.560Z,1008.05
2022-10-23T01:23:07.643Z,1008.04
2022-10-23T01:24:07.517Z,1008.02
2022-10-23T01:25:07.520Z,1008.01
2022-10-23T01:26:07.493Z,1008.00
2022-10-23T01:27:07.495Z,1007.99
2022-10-23T01:28:07.475Z,1008.00
2022-10-23T01:29:07.509Z,1008.00
2022-10-23T01:30:07.450Z,1008.00
2022-10-23T01:31:07.457Z,1007.98
2022-10-23T01:32:07.431Z,1007.97
2022-10-23T01:33:07.433Z,1007.97
2022-10-23T01:34:07.407Z,1007.97
2022-10-23T01:35:07.436Z,1007.99
2022-10-23T01:36:07.392Z,1008.00
2022-10-23T01:37:07.390Z,1008.00
2022-10-23T01:38:07.367Z,1008.00
2022-10-23T01:39:07.403Z,1007.99
2022-10-23T01:40:07.344Z,1007.99
2022-10-23T01:41:07.382Z,1007.98
2022-10-23T01:42:07.325Z,1007.98
2022-10-23T01:43:07.328Z,1007.97
2022-10-23T01:44:07.307Z,1007.96
2022-10-23T01:45:07.308Z,1007.94
2022-10-23T01:46:07.284Z,1007.92
2022-10-23T01:47:07.311Z,1007.92
2022-10-23T01:48:07.265Z,1007.91
2022-10-23T01:49:07.272Z,1007.91
2022-10-23T01:50:07.243Z,1007.91
2022-10-23T01:51:07.241Z,1007.91
2022-10-23T01:52:07.226Z,1007.91
2022-10-23T01:53:07.253Z,1007.91
2022-10-23T01:54:07.197Z,1007.92
2022-10-23T01:55:07.207Z,1007.91
2022-10-23T01:56:07.177Z,1007.90
2022-10-23T01:57:07.188Z,1007.87
2022-10-23T01:58:07.165Z,1007.84
2022-10-23T01:59:07.205Z,1007.81
2022-10-23T02:00:07.135Z,1007.79
2022-10-23T02:01:07.196Z,1007.80
2022-10-23T02:02:07.309Z,1007.81
2022-10-23T02:03:07.130Z,1007.80
2022-10-23T02:04:07.100Z,1007.79
2022-10-23T02:05:07.135Z,1007.77
2022-10-23T02:06:07.076Z,1007.75
2022-10-23T02:07:07.078Z,1007.74
2022-10-23T02:08:07.075Z,1007.74
2022-10-23T02:09:07.056Z,1007.73
2022-10-23T02:10:07.028Z,1007.73
2022-10-23T02:11:07.060Z,1007.73
2022-10-23T02:12:07.012Z,1007.71
2022-10-23T02:13:07.011Z,1007.69
2022-10-23T02:14:06.987Z,1007.65
2022-10-23T02:15:06.996Z,1007.62
2022-10-23T02:16:06.971Z,1007.59
2022-10-23T02:17:07.217Z,1007.57
2022-10-23T02:18:06.943Z,1007.56
2022-10-23T02:19:06.955Z,1007.56
2022-10-23T02:20:06.922Z,1007.56
2022-10-23T02:21:06.930Z,1007.56
2022-10-23T02:22:06.902Z,1007.55
2022-10-23T02:23:06.953Z,1007.54
2022-10-23T02:24:06.886Z,1007.52
2022-10-23T02:25:06.888Z,1007.51
2022-10-23T02:26:06.866Z,1007.50
2022-10-23T02:27:06.864Z,1007.50
2022-10-23T02:28:06.841Z,1007.48
2022-10-23T02:29:06.915Z,1007.46
2022-10-23T02:30:06.829Z,1007.44
2022-10-23T02:31:06.827Z,1007.42
2022-10-23T02:32:06.803Z,1007.40
2022-10-23T02:33:06.805Z,1007.39
2022-10-23T02:34:06.775Z,1007.37
2022-10-23T02:35:06.821Z,1007.38
2022-10-23T02:36:06.757Z,1007.38
2022-10-23T02:37:06.757Z,1007.38
2022-10-23T02:38:06.740Z,1007.39
2022-10-23T02:39:06.739Z,1007.39
2022-10-23T02:40:06.715Z,1007.39
2022-10-23T02:41:06.745Z,1007.37
2022-10-23T02:42:06.704Z,1007.36
2022-10-23T02:43:06.698Z,1007.34
2022-10-23T02:44:06.680Z,1007.33
2022-10-23T02:45:06.678Z,1007.32
2022-10-23T02:46:06.659Z,1007.30
2022-10-23T02:47:06.679Z,1007.28
2022-10-23T02:48:06.638Z,1007.25
2022-10-23T02:49:06.643Z,1007.24
2022-10-23T02:50:06.609Z,1007.22
2022-10-23T02:51:06.616Z,1007.21
2022-10-23T02:52:06.594Z,1007.19
2022-10-23T02:53:06.628Z,1007.19
2022-10-23T02:54:06.572Z,1007.19
2022-10-23T02:55:06.568Z,1007.19
2022-10-23T02:56:06.543Z,1007.19
2022-10-23T02:57:06.559Z,1007.19
2022-10-23T02:58:06.526Z,1007.17
2022-10-23T02:59:06.565Z,1007.16
2022-10-23T03:00:06.525Z,1007.14
2022-10-23T03:01:06.539Z,1007.13
2022-10-23T03:02:06.772Z,1007.12
2022-10-23T03:03:06.488Z,1007.12
2022-10-23T03:04:06.459Z,1007.12
2022-10-23T03:05:06.495Z,1007.12
2022-10-23T03:06:06.443Z,1007.11
2022-10-23T03:07:06.446Z,1007.11
2022-10-23T03:08:06.458Z,1007.09
2022-10-23T03:09:06.425Z,1007.07
2022-10-23T03:10:06.415Z,1007.07
2022-10-23T03:11:06.532Z,1007.07
2022-10-23T03:12:06.396Z,1007.07
2022-10-23T03:13:06.397Z,1007.07
2022-10-23T03:14:06.362Z,1007.05
2022-10-23T03:15:06.368Z,1007.04
2022-10-23T03:16:06.347Z,1007.03
2022-10-23T03:17:06.529Z,1007.01
2022-10-23T03:18:06.313Z,1007.00
2022-10-23T03:19:06.423Z,1007.00
2022-10-23T03:20:06.339Z,1006.99
2022-10-23T03:21:06.316Z,1007.01
2022-10-23T03:22:06.274Z,1007.02
2022-10-23T03:23:06.497Z,1007.03
2022-10-23T03:24:06.261Z,1007.04
2022-10-23T03:25:06.285Z,1007.03
2022-10-23T03:26:06.231Z,1007.03
2022-10-23T03:27:06.244Z,1007.03
2022-10-23T03:28:06.213Z,1007.03
2022-10-23T03:29:06.328Z,1007.04
2022-10-23T03:30:06.192Z,1007.05
2022-10-23T03:31:06.190Z,1007.06
2022-10-23T03:32:06.173Z,1007.07
2022-10-23T03:33:06.184Z,1007.07
2022-10-23T03:34:08.139Z,1007.06
2022-10-23T03:35:06.179Z,1007.05
2022-10-23T03:36:06.135Z,1007.03
2022-10-23T03:37:06.130Z,1007.01
2022-10-23T03:38:06.108Z,1007.00
2022-10-23T03:39:06.113Z,1006.99
2022-10-23T03:40:06.087Z,1006.97
2022-10-23T03:41:06.116Z,1006.95
2022-10-23T03:42:06.063Z,1006.93
2022-10-23T03:43:06.073Z,1006.92
2022-10-23T03:44:06.044Z,1006.92
2022-10-23T03:45:06.043Z,1006.92
2022-10-23T03:46:06.021Z,1006.91
2022-10-23T03:47:06.062Z,1006.91
2022-10-23T03:48:06.000Z,1006.89
2022-10-23T03:49:06.002Z,1006.86
2022-10-23T03:50:05.979Z,1006.82
2022-10-23T03:51:05.990Z,1006.78
2022-10-23T03:52:05.957Z,1006.74
2022-10-23T03:53:05.984Z,1006.69
2022-10-23T03:54:05.935Z,1006.66
2022-10-23T03:55:05.964Z,1006.62
2022-10-23T03:56:05.932Z,1006.59
2022-10-23T03:57:05.928Z,1006.58
2022-10-23T03:58:05.899Z,1006.58
2022-10-23T03:59:05.946Z,1006.61
2022-10-23T04:00:05.894Z,1006.62
2022-10-23T04:01:05.965Z,1006.63
2022-10-23T04:02:05.897Z,1006.64
2022-10-23T04:03:05.857Z,1006.64
2022-10-23T04:04:05.844Z,1006.64
2022-10-23T04:05:05.871Z,1006.64
2022-10-23T04:06:05.817Z,1006.64
2022-10-23T04:07:05.826Z,1006.63
2022-10-23T04:08:05.798Z,1006.63
2022-10-23T04:09:05.855Z,1006.62
2022-10-23T04:10:05.795Z,1006.62
2022-10-23T04:11:13.735Z,1006.61
2022-10-23T04:12:12.257Z,1006.61
2022-10-23T04:13:12.261Z,1006.60
2022-10-23T04:14:12.229Z,1006.61
2022-10-23T04:15:12.238Z,1006.61
2022-10-23T04:16:05.705Z,1006.62
2022-10-23T04:17:05.743Z,1006.63
2022-10-23T04:18:05.691Z,1006.65
2022-10-23T04:19:05.691Z,1006.67
2022-10-23T04:20:05.685Z,1006.68
2022-10-23T04:21:05.680Z,1006.68
2022-10-23T04:22:05.651Z,1006.67
2022-10-23T04:23:05.684Z,1006.66
2022-10-23T04:24:05.622Z,1006.65
2022-10-23T04:25:05.632Z,1006.64
2022-10-23T04:26:05.602Z,1006.61
2022-10-23T04:27:05.608Z,1006.58
2022-10-23T04:28:05.583Z,1006.56
2022-10-23T04:29:05.611Z,1006.54
2022-10-23T04:30:05.560Z,1006.52
2022-10-23T04:31:05.568Z,1006.51
2022-10-23T04:32:05.544Z,1006.49
2022-10-23T04:33:05.543Z,1006.48
2022-10-23T04:35:05.554Z,1006.44
2022-10-23T04:36:05.504Z,1006.42
2022-10-23T04:37:05.498Z,1006.41
2022-10-23T04:38:05.486Z,1006.42
2022-10-23T04:39:05.485Z,1006.42
2022-10-23T04:40:05.462Z,1006.44
2022-10-23T04:41:05.482Z,1006.45
2022-10-23T04:42:05.433Z,1006.45
2022-10-23T04:43:05.441Z,1006.44
2022-10-23T04:44:05.421Z,1006.42
2022-10-23T04:45:05.426Z,1006.39
2022-10-23T04:46:05.390Z,1006.36
2022-10-23T04:47:05.431Z,1006.33
2022-10-23T04:48:05.370Z,1006.32
2022-10-23T04:49:05.377Z,1006.31
2022-10-23T04:50:05.348Z,1006.30
2022-10-23T04:51:05.354Z,1006.28
2022-10-23T04:52:05.330Z,1006.27
2022-10-23T04:53:05.368Z,1006.26
2022-10-23T04:54:05.311Z,1006.26
2022-10-23T04:55:05.312Z,1006.27
2022-10-23T04:56:05.292Z,1006.28
2022-10-23T04:57:05.293Z,1006.28
2022-10-23T04:58:05.333Z,1006.28
2022-10-23T05:00:05.280Z,1006.31
2022-10-23T05:01:05.381Z,1006.31
2022-10-23T05:02:05.427Z,1006.32
2022-10-23T05:03:05.300Z,1006.31
2022-10-23T05:04:05.239Z,1006.31
2022-10-23T05:05:05.242Z,1006.30
2022-10-23T05:06:05.190Z,1006.30
2022-10-23T05:07:05.366Z,1006.30
2022-10-23T05:08:05.271Z,1006.30
2022-10-23T05:09:05.241Z,1006.29
2022-10-23T05:10:05.207Z,1006.28
2022-10-23T05:11:19.813Z,1006.28
2022-10-23T05:12:05.174Z,1006.26
2022-10-23T05:13:05.144Z,1006.25
2022-10-23T05:14:05.173Z,1006.22
2022-10-23T05:15:05.107Z,1006.21
2022-10-23T05:16:05.173Z,1006.21
2022-10-23T05:17:05.202Z,1006.21
2022-10-23T05:18:05.124Z,1006.22
2022-10-23T05:19:05.116Z,1006.22
2022-10-23T05:20:05.170Z,1006.22
2022-10-23T05:21:05.080Z,1006.20
2022-10-23T05:22:05.078Z,1006.17
2022-10-23T05:23:05.066Z,1006.15
2022-10-23T05:24:05.048Z,1006.14
2022-10-23T05:25:05.026Z,1006.11
2022-10-23T05:26:05.033Z,1006.10
2022-10-23T05:27:05.007Z,1006.09
2022-10-23T05:28:05.016Z,1006.08
2022-10-23T05:29:05.017Z,1006.07
2022-10-23T05:30:04.970Z,1006.05
2022-10-23T05:31:04.940Z,1006.04
2022-10-23T05:32:04.907Z,1006.03
2022-10-23T05:33:04.912Z,1006.05
2022-10-23T05:34:06.156Z,1006.06
2022-10-23T05:35:04.923Z,1006.07
2022-10-23T05:36:04.885Z,1006.06
2022-10-23T05:37:04.881Z,1006.05
2022-10-23T05:38:04.846Z,1006.04
2022-10-23T05:39:04.854Z,1006.01
2022-10-23T05:40:04.828Z,1005.99
2022-10-23T05:41:04.883Z,1005.98
2022-10-23T05:42:04.805Z,1005.97
2022-10-23T05:43:04.820Z,1005.96
2022-10-23T05:44:04.790Z,1005.95
2022-10-23T05:45:04.788Z,1005.95
2022-10-23T05:46:04.762Z,1005.95
2022-10-23T05:47:04.801Z,1005.95
2022-10-23T05:48:16.755Z,1005.95
2022-10-23T05:49:04.751Z,1005.94
2022-10-23T05:50:04.721Z,1005.96
2022-10-23T05:51:04.729Z,1005.97
2022-10-23T05:52:04.706Z,1005.97
2022-10-23T05:53:04.740Z,1005.97
2022-10-23T05:54:04.684Z,1005.97
2022-10-23T05:55:04.692Z,1005.97
2022-10-23T05:56:04.658Z,1005.98
2022-10-23T05:57:04.753Z,1005.99
2022-10-23T05:58:04.645Z,1005.99
2022-10-23T05:59:04.661Z,1006.00
2022-10-23T06:00:04.621Z,1006.00
2022-10-23T06:01:04.705Z,1005.97
2022-10-23T06:02:04.689Z,1005.93
2022-10-23T06:03:04.595Z,1005.90
2022-10-23T06:04:04.598Z,1005.88
2022-10-23T06:05:04.605Z,1005.89
2022-10-23T06:06:04.556Z,1005.92
2022-10-23T06:07:04.554Z,1005.94
2022-10-23T06:08:04.529Z,1005.97
2022-10-23T06:09:04.539Z,1005.96
2022-10-23T06:10:04.528Z,1005.94
2022-10-23T06:11:04.549Z,1005.91
2022-10-23T06:12:04.488Z,1005.90
2022-10-23T06:13:04.490Z,1005.89
2022-10-23T06:14:04.471Z,1005.88
2022-10-23T06:15:04.470Z,1005.88
2022-10-23T06:16:08.676Z,1005.87
2022-10-23T06:17:04.491Z,1005.86
2022-10-23T06:18:04.448Z,1005.86
2022-10-23T06:19:04.433Z,1005.86
2022-10-23T06:20:04.405Z,1005.85
2022-10-23T06:21:04.420Z,1005.85
2022-10-23T06:22:04.382Z,1005.85
2022-10-23T06:23:04.433Z,1005.86
2022-10-23T06:24:04.386Z,1005.85
2022-10-23T06:25:04.363Z,1005.83
2022-10-23T06:26:04.353Z,1005.82
2022-10-23T06:27:04.351Z,1005.81
2022-10-23T06:28:04.323Z,1005.82
2022-10-23T06:29:04.348Z,1005.84
2022-10-23T06:30:04.299Z,1005.90
2022-10-23T06:31:04.302Z,1005.93
2022-10-23T06:32:04.278Z,1005.92
2022-10-23T06:33:05.972Z,1005.90
2022-10-23T06:34:04.257Z,1005.90
2022-10-23T06:35:04.284Z,1005.86
2022-10-23T06:36:04.237Z,1005.80
2022-10-23T06:37:04.242Z,1005.77
2022-10-23T06:38:04.223Z,1005.76
2022-10-23T06:39:04.221Z,1005.72
2022-10-23T06:40:04.197Z,1005.70
2022-10-23T06:41:04.236Z,1005.67
2022-10-23T06:42:04.189Z,1005.65
2022-10-23T06:43:04.189Z,1005.63
2022-10-23T06:44:04.152Z,1005.61
2022-10-23T06:45:06.493Z,1005.59
2022-10-23T06:46:04.134Z,1005.58
2022-10-23T06:47:04.208Z,1005.59
2022-10-23T06:48:04.131Z,1005.59
2022-10-23T06:49:04.127Z,1005.60
2022-10-23T06:50:04.096Z,1005.60
2022-10-23T06:51:04.097Z,1005.58
2022-10-23T06:52:04.070Z,1005.54
2022-10-23T06:53:04.117Z,1005.49
2022-10-23T06:54:04.049Z,1005.47
2022-10-23T06:55:04.051Z,1005.43
2022-10-23T06:56:04.037Z,1005.42
2022-10-23T06:57:04.040Z,1005.43
2022-10-23T06:58:04.023Z,1005.45
2022-10-23T06:59:04.034Z,1005.46
2022-10-23T07:00:03.987Z,1005.47
2022-10-23T07:01:04.199Z,1005.47
2022-10-23T07:02:03.974Z,1005.48
2022-10-23T07:03:03.979Z,1005.49
2022-10-23T07:04:03.985Z,1005.49
2022-10-23T07:05:03.954Z,1005.49
2022-10-23T07:06:03.934Z,1005.51
2022-10-23T07:07:03.926Z,1005.52
2022-10-23T07:08:03.904Z,1005.56
2022-10-23T07:09:03.903Z,1005.58
2022-10-23T07:10:04.043Z,1005.57
2022-10-23T07:11:03.890Z,1005.58
2022-10-23T07:12:03.860Z,1005.59
2022-10-23T07:13:03.876Z,1005.59
2022-10-23T07:14:03.842Z,1005.58
2022-10-23T07:15:03.885Z,1005.56
2022-10-23T07:16:03.825Z,1005.53
2022-10-23T07:17:03.819Z,1005.52
2022-10-23T07:18:03.798Z,1005.53
2022-10-23T07:19:03.824Z,1005.54
2022-10-23T07:20:03.779Z,1005.52
2022-10-23T07:21:03.835Z,1005.53
2022-10-23T07:22:03.802Z,1005.52
2022-10-23T07:23:03.763Z,1005.50
2022-10-23T07:24:03.743Z,1005.51
2022-10-23T07:25:03.738Z,1005.49
2022-10-23T07:26:03.753Z,1005.47
2022-10-23T07:27:03.715Z,1005.45
2022-10-23T07:28:03.704Z,1005.46
2022-10-23T07:29:03.738Z,1005.44
2022-10-23T07:30:03.705Z,1005.44
2022-10-23T07:31:03.727Z,1005.43
2022-10-23T07:32:03.697Z,1005.43
2022-10-23T07:33:03.679Z,1005.46
2022-10-23T07:34:03.653Z,1005.48
2022-10-23T07:35:03.686Z,1005.46
2022-10-23T07:36:03.640Z,1005.45
2022-10-23T07:37:03.653Z,1005.44
2022-10-23T07:38:03.628Z,1005.43
2022-10-23T07:39:03.719Z,1005.43
2022-10-23T07:40:03.576Z,1005.44
2022-10-23T07:41:03.577Z,1005.44
2022-10-23T07:42:03.549Z,1005.43
2022-10-23T07:43:03.585Z,1005.41
2022-10-23T07:44:03.529Z,1005.40
2022-10-23T07:45:03.568Z,1005.39
2022-10-23T07:46:03.508Z,1005.41
2022-10-23T07:47:03.507Z,1005.40
2022-10-23T07:48:03.540Z,1005.38
2022-10-23T07:49:03.508Z,1005.37
2022-10-23T07:50:03.463Z,1005.36
2022-10-23T07:51:03.465Z,1005.35
2022-10-23T07:53:03.447Z,1005.32
2022-10-23T07:54:03.443Z,1005.33
2022-10-23T07:55:03.434Z,1005.35
2022-10-23T07:56:03.400Z,1005.35
2022-10-23T07:57:03.405Z,1005.35
2022-10-23T07:58:03.378Z,1005.37
2022-10-23T07:59:03.404Z,1005.35
2022-10-23T08:00:03.503Z,1005.32
2022-10-23T08:01:03.420Z,1005.29
2022-10-23T08:02:03.374Z,1005.26
2022-10-23T08:03:03.341Z,1005.24
2022-10-23T08:04:03.340Z,1005.23
2022-10-23T08:05:03.320Z,1005.22
2022-10-23T08:06:03.358Z,1005.21
2022-10-23T08:07:03.303Z,1005.21
2022-10-23T08:08:03.271Z,1005.21
2022-10-23T08:09:06.286Z,1005.20
2022-10-23T08:10:03.271Z,1005.21
2022-10-23T08:11:03.289Z,1005.22
2022-10-23T08:12:03.242Z,1005.23
2022-10-23T08:13:03.234Z,1005.25
2022-10-23T08:14:03.214Z,1005.26
2022-10-23T08:15:03.288Z,1005.30
2022-10-23T08:16:03.189Z,1005.33
2022-10-23T08:17:03.332Z,1005.35
2022-10-23T08:18:03.198Z,1005.34
2022-10-23T08:19:03.196Z,1005.33
2022-10-23T08:20:03.147Z,1005.31
2022-10-23T08:21:03.189Z,1005.30
2022-10-23T08:22:03.128Z,1005.28
2022-10-23T08:23:03.148Z,1005.28
2022-10-23T08:24:03.132Z,1005.28
2022-10-23T08:25:03.114Z,1005.26
2022-10-23T08:26:03.111Z,1005.26
2022-10-23T08:27:03.094Z,1005.26
2022-10-23T08:28:05.594Z,1005.26
2022-10-23T08:29:03.077Z,1005.26
2022-10-23T08:30:03.049Z,1005.25
2022-10-23T08:31:03.044Z,1005.23
2022-10-23T08:32:03.052Z,1005.22
2022-10-23T08:33:03.028Z,1005.19
2022-10-23T08:34:03.004Z,1005.17
2022-10-23T08:35:03.006Z,1005.17
2022-10-23T08:36:02.980Z,1005.16
2022-10-23T08:37:03.014Z,1005.16
2022-10-23T08:38:02.955Z,1005.17
2022-10-23T08:39:02.968Z,1005.17
2022-10-23T08:40:02.938Z,1005.17
2022-10-23T08:41:02.938Z,1005.16
2022-10-23T08:42:03.000Z,1005.14
2022-10-23T08:43:02.936Z,1005.13
2022-10-23T08:44:02.897Z,1005.12
2022-10-23T08:45:02.929Z,1005.10
2022-10-23T08:46:04.222Z,1005.09
2022-10-23T08:47:02.888Z,1005.09
2022-10-23T08:48:02.901Z,1005.09
2022-10-23T08:49:02.857Z,1005.09
2022-10-23T08:50:02.834Z,1005.09
2022-10-23T08:51:02.832Z,1005.08
2022-10-23T08:52:02.807Z,1005.06
2022-10-23T08:53:02.828Z,1005.04
2022-10-23T08:54:02.832Z,1005.03
2022-10-23T08:55:02.796Z,1005.02
2022-10-23T08:56:02.769Z,1005.00
2022-10-23T08:57:02.774Z,1004.99
2022-10-23T08:58:02.748Z,1004.98
2022-10-23T08:59:02.755Z,1004.96
2022-10-23T09:00:02.807Z,1004.95
2022-10-23T09:01:02.870Z,1004.94
2022-10-23T09:02:02.892Z,1004.93
2022-10-23T09:03:02.722Z,1004.92
2022-10-23T09:04:02.689Z,1004.89
2022-10-23T09:05:02.688Z,1004.88
2022-10-23T09:06:02.684Z,1004.85
2022-10-23T09:07:02.758Z,1004.83
2022-10-23T09:08:02.640Z,1004.82
2022-10-23T09:09:02.719Z,1004.80
2022-10-23T09:10:02.625Z,1004.78
2022-10-23T09:11:02.623Z,1004.76
2022-10-23T09:12:02.755Z,1004.73
2022-10-23T09:13:02.601Z,1004.71
2022-10-23T09:14:02.583Z,1004.71
2022-10-23T09:15:02.593Z,1004.71
2022-10-23T09:16:02.553Z,1004.69
2022-10-23T09:17:02.657Z,1004.69
2022-10-23T09:18:02.564Z,1004.68
2022-10-23T09:19:02.539Z,1004.67
2022-10-23T09:20:02.547Z,1004.68
2022-10-23T09:21:02.546Z,1004.68
2022-10-23T09:22:02.494Z,1004.69
2022-10-23T09:23:02.491Z,1004.69
2022-10-23T09:24:02.492Z,1004.71
2022-10-23T09:25:02.486Z,1004.71
2022-10-23T09:26:02.452Z,1004.72
2022-10-23T09:27:02.452Z,1004.71
2022-10-23T09:28:05.255Z,1004.70
2022-10-23T09:29:02.445Z,1004.68
2022-10-23T09:30:02.453Z,1004.66
2022-10-23T09:31:02.408Z,1004.64
2022-10-23T09:32:02.390Z,1004.62
2022-10-23T09:33:02.430Z,1004.62
2022-10-23T09:34:02.365Z,1004.61
2022-10-23T09:35:02.379Z,1004.61
2022-10-23T09:36:02.382Z,1004.61
2022-10-23T09:37:02.357Z,1004.62
2022-10-23T09:38:02.329Z,1004.64
2022-10-23T09:39:02.352Z,1004.65
2022-10-23T09:40:02.307Z,1004.65
2022-10-23T09:41:02.545Z,1004.63
2022-10-23T09:42:02.322Z,1004.63
2022-10-23T09:43:02.269Z,1004.61
2022-10-23T09:44:02.271Z,1004.59
2022-10-23T09:45:02.249Z,1004.57
2022-10-23T09:46:02.255Z,1004.55
2022-10-23T09:47:02.234Z,1004.52
2022-10-23T09:48:02.268Z,1004.50
2022-10-23T09:49:04.976Z,1004.49
2022-10-23T09:50:02.208Z,1004.48
2022-10-23T09:51:02.183Z,1004.47
2022-10-23T09:52:02.187Z,1004.46
2022-10-23T09:53:02.165Z,1004.45
2022-10-23T09:54:02.190Z,1004.44
2022-10-23T09:55:02.151Z,1004.40
2022-10-23T09:56:02.159Z,1004.38
2022-10-23T09:57:02.131Z,1004.39
2022-10-23T09:58:02.147Z,1004.39
2022-10-23T09:59:02.105Z,1004.42
2022-10-23T10:00:02.142Z,1004.42
2022-10-23T10:01:02.260Z,1004.42
2022-10-23T10:02:02.213Z,1004.40
2022-10-23T10:03:02.059Z,1004.38
2022-10-23T10:04:02.068Z,1004.37
2022-10-23T10:05:02.057Z,1004.35
2022-10-23T10:06:02.085Z,1004.33
2022-10-23T10:07:02.026Z,1004.33
2022-10-23T10:08:02.037Z,1004.31
2022-10-23T10:09:01.994Z,1004.30
2022-10-23T10:10:01.998Z,1004.27
2022-10-23T10:11:01.978Z,1004.24
2022-10-23T10:12:02.005Z,1004.23
2022-10-23T10:13:01.950Z,1004.20
2022-10-23T10:14:01.958Z,1004.19
2022-10-23T10:15:01.930Z,1004.17
2022-10-23T10:16:01.929Z,1004.16
2022-10-23T10:17:01.929Z,1004.14
2022-10-23T10:18:01.975Z,1004.12
2022-10-23T10:19:01.890Z,1004.11
2022-10-23T10:20:05.247Z,1004.10
2022-10-23T10:21:01.874Z,1004.10
2022-10-23T10:22:01.884Z,1004.09
2022-10-23T10:23:01.845Z,1004.08
2022-10-23T10:24:01.896Z,1004.08
2022-10-23T10:25:01.829Z,1004.06
2022-10-23T10:26:01.838Z,1004.03
2022-10-23T10:27:01.804Z,1003.99
2022-10-23T10:28:01.813Z,1003.98
2022-10-23T10:29:01.790Z,1003.96
2022-10-23T10:30:01.821Z,1003.96
2022-10-23T10:31:01.764Z,1003.98
2022-10-23T10:32:01.774Z,1003.98
2022-10-23T10:33:01.749Z,1003.96
2022-10-23T10:34:01.750Z,1003.95
2022-10-23T10:35:01.729Z,1003.93
2022-10-23T10:36:01.750Z,1003.91
2022-10-23T10:37:01.695Z,1003.88
2022-10-23T10:38:01.701Z,1003.86
2022-10-23T10:39:01.683Z,1003.84
2022-10-23T10:40:01.690Z,1003.83
2022-10-23T10:41:01.660Z,1003.84
2022-10-23T10:42:01.704Z,1003.85
2022-10-23T10:43:01.635Z,1003.85
2022-10-23T10:44:01.643Z,1003.84
2022-10-23T10:45:01.611Z,1003.84
2022-10-23T10:46:01.619Z,1003.84
2022-10-23T10:47:01.594Z,1003.84
2022-10-23T10:48:01.617Z,1003.82
2022-10-23T10:49:01.570Z,1003.80
2022-10-23T10:50:01.577Z,1003.79
2022-10-23T10:51:01.551Z,1003.76
2022-10-23T10:52:01.562Z,1003.73
2022-10-23T10:53:01.529Z,1003.71
2022-10-23T10:54:01.577Z,1003.69
2022-10-23T10:55:01.505Z,1003.67
2022-10-23T10:56:01.577Z,1003.63
2022-10-23T10:57:01.495Z,1003.60
2022-10-23T10:58:01.492Z,1003.56
2022-10-23T10:59:01.464Z,1003.54
2022-10-23T11:00:01.492Z,1003.50
2022-10-23T11:01:01.591Z,1003.46
2022-10-23T11:02:01.573Z,1003.42
2022-10-23T11:03:01.439Z,1003.39
2022-10-23T11:04:01.430Z,1003.37
2022-10-23T11:05:01.409Z,1003.35
2022-10-23T11:06:01.455Z,1003.34
2022-10-23T11:07:01.388Z,1003.33
2022-10-23T11:08:01.386Z,1003.32
2022-10-23T11:09:19.384Z,1003.30
2022-10-23T11:10:01.374Z,1003.29
2022-10-23T11:11:01.348Z,1003.28
2022-10-23T11:12:01.390Z,1003.27
2022-10-23T11:13:01.346Z,1003.25
2022-10-23T11:14:01.320Z,1003.24
2022-10-23T11:15:01.292Z,1003.24
2022-10-23T11:16:01.305Z,1003.23
2022-10-23T11:17:01.272Z,1003.25
2022-10-23T11:18:01.343Z,1003.27
2022-10-23T11:19:01.254Z,1003.27
2022-10-23T11:20:01.255Z,1003.27
2022-10-23T11:21:01.236Z,1003.23
2022-10-23T11:22:01.239Z,1003.18
2022-10-23T11:23:01.246Z,1003.15
2022-10-23T11:24:01.287Z,1003.11
2022-10-23T11:25:01.193Z,1003.07
2022-10-23T11:26:01.204Z,1003.05
2022-10-23T11:27:01.173Z,1003.05
2022-10-23T11:28:03.558Z,1003.06
2022-10-23T11:29:01.147Z,1003.05
2022-10-23T11:30:01.187Z,1003.06
2022-10-23T11:31:01.130Z,1003.05
2022-10-23T11:32:01.128Z,1003.07
2022-10-23T11:33:01.114Z,1003.07
2022-10-23T11:34:01.106Z,1003.03
2022-10-23T11:35:01.080Z,1003.00
2022-10-23T11:36:01.128Z,1002.97
2022-10-23T11:37:01.074Z,1002.95
2022-10-23T11:38:01.067Z,1002.94
2022-10-23T11:39:01.039Z,1002.91
2022-10-23T11:40:01.049Z,1002.89
2022-10-23T11:41:01.020Z,1002.86
2022-10-23T11:42:01.058Z,1002.83
2022-10-23T11:43:01.010Z,1002.82
2022-10-23T11:44:01.023Z,1002.82
2022-10-23T11:45:00.977Z,1002.85
2022-10-23T11:46:00.984Z,1002.84
2022-10-23T11:47:00.969Z,1002.87
2022-10-23T11:48:00.984Z,1002.88
2022-10-23T11:49:00.966Z,1002.87
2022-10-23T11:50:00.943Z,1002.86
2022-10-23T11:51:04.250Z,1002.85
2022-10-23T11:52:00.916Z,1002.87
2022-10-23T11:53:16.827Z,1002.89
2022-10-23T11:54:00.928Z,1002.89
2022-10-23T11:55:00.873Z,1002.87
2022-10-23T11:56:00.876Z,1002.82
2022-10-23T11:57:00.855Z,1002.76
2022-10-23T11:58:00.856Z,1002.75
2022-10-23T11:59:00.850Z,1002.73
2022-10-23T12:00:00.868Z,1002.70
2022-10-23T12:01:00.840Z,1002.67
2022-10-23T12:02:00.913Z,1002.63
2022-10-23T12:03:00.859Z,1002.61
2022-10-23T12:04:00.788Z,1002.60
2022-10-23T12:05:00.763Z,1002.55
2022-10-23T12:06:00.792Z,1002.53
2022-10-23T12:07:00.756Z,1002.52
2022-10-23T12:08:00.753Z,1002.48
2022-10-23T12:09:00.736Z,1002.45